createdAt,value
2019-05-25T00:02:09.914Z,48.03
2019-05-25T00:10:31.401Z,48.06
2019-05-25T00:18:52.530Z,48.64
2019-05-25T00:35:40.549Z,49.09
2019-05-25T00:44:02.092Z,49.42
2019-05-25T00:52:23.434Z,49.61
2019-05-25T01:00:44.546Z,50.15
2019-05-25T01:09:05.792Z,50.40
2019-05-25T01:17:26.925Z,50.84
2019-05-25T01:25:48.424Z,51.28
2019-05-25T01:34:09.541Z,52.04
2019-05-25T01:42:30.944Z,52.29
2019-05-25T01:50:52.051Z,52.22
2019-05-25T01:59:14.190Z,52.94
2019-05-25T02:07:35.304Z,52.66
2019-05-25T02:15:56.423Z,52.80
2019-05-25T02:24:17.580Z,52.88
2019-05-25T02:41:05.399Z,54.01
2019-05-25T02:49:26.920Z,54.36
2019-05-25T02:57:48.165Z,54.47
2019-05-25T03:06:09.508Z,54.53
2019-05-25T03:14:30.808Z,54.96
2019-05-25T03:22:52.276Z,54.93
2019-05-25T03:31:13.381Z,54.94
2019-05-25T03:39:34.521Z,55.37
2019-05-25T03:47:55.926Z,55.69
2019-05-25T03:56:17.190Z,56.11
2019-05-25T04:04:38.691Z,56.33
2019-05-25T04:12:59.972Z,56.54
2019-05-25T04:21:21.086Z,56.62
2019-05-25T04:29:42.320Z,56.85
2019-05-25T04:38:03.801Z,56.90
2019-05-25T04:46:24.913Z,56.87
2019-05-25T04:54:46.038Z,57.02
2019-05-25T05:03:07.273Z,56.87
2019-05-25T05:11:28.814Z,56.82
2019-05-25T05:19:49.939Z,56.01
2019-05-25T05:28:11.393Z,55.72
2019-05-25T05:36:32.666Z,54.87
2019-05-25T05:44:53.955Z,54.50
2019-05-25T05:53:15.292Z,54.97
2019-05-25T06:01:36.529Z,55.15
2019-05-25T06:09:57.967Z,54.58
2019-05-25T06:18:19.093Z,53.99
2019-05-25T06:26:40.202Z,53.84
2019-05-25T06:35:01.354Z,53.91
2019-05-25T06:43:22.481Z,53.08
2019-05-25T06:51:43.605Z,53.03
2019-05-25T07:00:04.824Z,52.47
2019-05-25T07:08:25.931Z,51.83
2019-05-25T07:16:47.073Z,51.42
2019-05-25T07:25:08.594Z,52.00
2019-05-25T07:33:29.714Z,50.37
2019-05-25T07:41:50.965Z,49.01
2019-05-25T07:50:12.075Z,48.29
2019-05-25T07:58:33.187Z,49.17
2019-05-25T08:06:54.800Z,48.48
2019-05-25T08:15:16.162Z,47.94
2019-05-25T08:23:37.620Z,47.36
2019-05-25T08:31:58.848Z,46.44
2019-05-25T08:40:20.001Z,45.65
2019-05-25T08:48:41.399Z,45.51
2019-05-25T08:57:02.675Z,46.03
2019-05-25T09:05:24.195Z,44.02
2019-05-25T09:13:45.341Z,42.49
2019-05-25T09:22:06.572Z,41.56
2019-05-25T09:30:27.712Z,40.11
2019-05-25T09:38:49.195Z,43.32
2019-05-25T09:47:10.603Z,42.57
2019-05-25T09:55:31.873Z,42.37
2019-05-25T10:03:56.656Z,44.38
2019-05-25T10:12:16.809Z,41.93
2019-05-25T10:20:37.941Z,40.77
2019-05-25T10:28:59.073Z,42.21
2019-05-25T10:37:20.269Z,40.26
2019-05-25T10:45:41.410Z,39.37
2019-05-25T10:54:02.537Z,39.14
2019-05-25T11:02:24.104Z,39.34
2019-05-25T11:10:45.222Z,39.04
2019-05-25T11:19:06.343Z,38.60
2019-05-25T11:27:27.485Z,40.26
2019-05-25T11:35:48.733Z,37.94
2019-05-25T11:44:10.217Z,38.11
2019-05-25T11:52:31.510Z,37.72
2019-05-25T12:00:52.994Z,37.17
2019-05-25T12:09:14.156Z,35.90
2019-05-25T12:17:35.277Z,35.67
2019-05-25T12:25:56.403Z,35.00
2019-05-25T12:34:17.557Z,27.47
2019-05-25T12:42:38.664Z,24.82
2019-05-25T12:50:59.997Z,24.53
2019-05-25T12:59:21.482Z,23.58
2019-05-25T13:07:42.604Z,23.06
2019-05-25T13:16:04.945Z,21.84
2019-05-25T13:24:26.184Z,19.21
2019-05-25T13:32:47.305Z,20.18
2019-05-25T13:41:09.801Z,21.07
2019-05-25T13:49:31.221Z,23.25
2019-05-25T13:57:52.781Z,22.13
2019-05-25T14:06:14.195Z,23.78
2019-05-25T14:14:35.705Z,23.92
2019-05-25T14:22:57.806Z,22.78
2019-05-25T14:31:19.319Z,24.92
2019-05-25T14:39:40.612Z,23.73
2019-05-25T14:48:01.890Z,24.34
2019-05-25T14:56:23.145Z,25.05
2019-05-25T15:04:44.631Z,21.92
2019-05-25T15:13:05.944Z,24.16
2019-05-25T15:21:28.239Z,24.58
2019-05-25T15:29:49.430Z,26.11
2019-05-25T15:38:10.570Z,27.56
2019-05-25T15:46:32.693Z,27.34
2019-05-25T15:54:53.826Z,28.07
2019-05-25T16:03:14.991Z,32.67
2019-05-25T16:11:36.231Z,31.52
2019-05-25T16:19:57.352Z,32.78
2019-05-25T16:28:18.505Z,33.38
2019-05-25T16:36:39.626Z,30.67
2019-05-25T16:45:05.336Z,29.15
2019-05-25T16:53:23.935Z,28.05
2019-05-25T17:01:48.637Z,27.38
2019-05-25T17:10:07.839Z,26.19
2019-05-25T17:18:28.979Z,28.23
2019-05-25T17:26:50.118Z,29.13
2019-05-25T17:35:11.276Z,29.52
2019-05-25T17:43:32.572Z,28.60
2019-05-25T17:51:54.005Z,29.32
2019-05-25T18:00:15.118Z,29.33
2019-05-25T18:08:37.565Z,30.52
2019-05-25T18:16:58.689Z,31.57
2019-05-25T18:25:19.938Z,32.02
2019-05-25T18:33:41.179Z,32.69
2019-05-25T18:42:02.630Z,33.98
2019-05-25T18:50:23.816Z,34.08
2019-05-25T18:58:45.024Z,36.48
2019-05-25T19:07:06.256Z,38.06
2019-05-25T19:15:27.525Z,39.13
2019-05-25T19:23:48.772Z,40.18
2019-05-25T19:32:09.918Z,40.30
2019-05-25T19:40:31.049Z,40.81
2019-05-25T19:48:52.181Z,41.16
2019-05-25T19:57:13.323Z,41.55
2019-05-25T20:05:34.492Z,41.77
2019-05-25T20:13:55.808Z,42.46
2019-05-25T20:22:17.230Z,43.04
2019-05-25T20:30:38.370Z,43.39
2019-05-25T20:38:59.502Z,43.76
2019-05-25T20:47:20.765Z,44.27
2019-05-25T20:55:41.891Z,44.45
2019-05-25T21:04:03.037Z,44.97
2019-05-25T21:12:24.271Z,45.95
2019-05-25T21:20:45.815Z,46.41
2019-05-25T21:29:06.997Z,46.69
2019-05-25T21:37:28.134Z,47.09
2019-05-25T21:45:49.399Z,47.25
2019-05-25T21:54:10.528Z,47.73
2019-05-25T22:02:32.031Z,48.30
2019-05-25T22:10:53.161Z,48.54
2019-05-25T22:19:14.285Z,49.13
2019-05-25T22:27:35.770Z,49.57
2019-05-25T22:35:56.914Z,49.98
2019-05-25T22:44:18.039Z,50.38
2019-05-25T22:52:39.549Z,50.67
2019-05-25T23:01:00.684Z,50.88
2019-05-25T23:09:22.203Z,51.10
2019-05-25T23:17:43.568Z,51.50
2019-05-25T23:26:05.060Z,51.85
2019-05-25T23:34:26.597Z,51.84
2019-05-25T23:42:48.023Z,52.58
2019-05-25T23:51:09.127Z,52.70
2019-05-25T23:59:30.565Z,52.77
